createdAt,value
2023-02-22T00:05:02.370Z,101298.16
2023-02-22T00:10:09.483Z,101294.47
2023-02-22T00:15:14.596Z,101295.22
2023-02-22T00:20:20.871Z,101290.94
2023-02-22T00:25:25.196Z,101278.16
2023-02-22T00:30:30.416Z,101295.47
2023-02-22T00:35:33.152Z,101288.56
2023-02-22T00:40:36.083Z,101282.38
2023-02-22T00:45:38.788Z,101292.50
2023-02-22T00:50:41.639Z,101310.44
2023-02-22T00:55:44.351Z,101301.91
2023-02-22T01:00:47.556Z,101287.06
2023-02-22T01:05:50.462Z,101299.81
2023-02-22T01:10:53.327Z,101306.31
2023-02-22T01:15:57.136Z,101307.03
2023-02-22T01:21:02.087Z,101307.03
2023-02-22T01:26:06.307Z,101316.59
2023-02-22T01:31:09.758Z,101289.16
2023-02-22T01:36:12.655Z,101323.94
2023-02-22T01:41:18.744Z,101317.78
2023-02-22T01:46:27.025Z,101323.31
2023-02-22T01:51:38.164Z,101304.09
2023-02-22T01:56:46.732Z,101324.78
2023-02-22T02:01:49.637Z,101314.66
2023-02-22T02:06:54.145Z,101322.25
2023-02-22T02:12:01.124Z,101325.06
2023-02-22T02:17:07.290Z,101335.03
2023-02-22T02:22:31.015Z,101339.84
2023-02-22T02:28:03.334Z,101340.69
2023-02-22T02:33:27.060Z,101341.22
2023-02-22T02:38:47.834Z,101346.47
2023-02-22T02:44:02.519Z,101344.66
2023-02-22T02:49:25.825Z,101351.09
2023-02-22T02:54:28.612Z,101359.59
2023-02-22T02:59:39.614Z,101349.59
2023-02-22T03:05:02.646Z,101353.47
2023-02-22T03:10:44.463Z,101361.06
2023-02-22T03:16:12.158Z,101357.34
2023-02-22T03:21:42.021Z,101354.75
2023-02-22T03:26:59.844Z,101369.09
2023-02-22T03:32:04.772Z,101357.41
2023-02-22T03:37:20.376Z,101354.06
2023-02-22T03:42:36.205Z,101358.88
2023-02-22T03:47:44.727Z,101348.09
2023-02-22T03:52:48.275Z,101358.34
2023-02-22T03:58:00.317Z,101364.78
2023-02-22T04:03:05.970Z,101357.03
2023-02-22T04:08:08.786Z,101359.84
2023-02-22T04:13:14.931Z,101353.56
2023-02-22T04:18:21.968Z,101358.00
2023-02-22T04:23:27.322Z,101362.28
2023-02-22T04:28:36.454Z,101369.69
2023-02-22T04:33:59.542Z,101369.56
2023-02-22T04:39:06.239Z,101373.81
2023-02-22T04:44:09.225Z,101374.31
2023-02-22T04:49:11.994Z,101360.47
2023-02-22T04:54:17.954Z,101351.59
2023-02-22T04:59:23.013Z,101333.72
2023-02-22T05:04:31.515Z,101362.84
2023-02-22T05:09:34.501Z,101349.44
2023-02-22T05:14:37.450Z,101348.59
2023-02-22T05:19:40.205Z,101342.59
2023-02-22T05:24:44.256Z,101359.41
2023-02-22T05:29:50.023Z,101343.03
2023-02-22T05:34:52.762Z,101364.34
2023-02-22T05:39:56.081Z,101359.53
2023-02-22T05:45:03.256Z,101356.00
2023-02-22T05:50:07.156Z,101370.19
2023-02-22T05:55:10.947Z,101359.25
2023-02-22T06:00:29.711Z,101356.06
2023-02-22T06:05:32.995Z,101352.03
2023-02-22T06:10:36.818Z,101349.78
2023-02-22T06:15:54.950Z,101342.22
2023-02-22T06:20:58.702Z,101345.81
2023-02-22T06:26:01.514Z,101337.28
2023-02-22T06:31:07.192Z,101321.06
2023-02-22T06:36:10.403Z,101333.34
2023-02-22T06:41:13.301Z,101316.03
2023-02-22T06:46:16.060Z,101318.22
2023-02-22T06:51:18.993Z,101317.03
2023-02-22T06:56:22.206Z,101321.28
2023-02-22T07:01:24.890Z,101308.66
2023-02-22T07:06:27.545Z,101307.72
2023-02-22T07:11:30.394Z,101321.88
2023-02-22T07:16:34.152Z,101300.84
2023-02-22T07:21:36.856Z,101296.59
2023-02-22T07:26:43.138Z,101288.84
2023-02-22T07:31:47.341Z,101305.09
2023-02-22T07:36:50.043Z,101310.47
2023-02-22T07:41:52.707Z,101311.88
2023-02-22T07:46:59.590Z,101305.50
2023-02-22T07:52:02.289Z,101304.16
2023-02-22T07:57:05.248Z,101312.81
2023-02-22T08:02:16.494Z,101303.91
2023-02-22T08:07:19.096Z,101314.97
2023-02-22T08:12:21.708Z,101313.97
2023-02-22T08:17:24.451Z,101327.56
2023-02-22T08:22:30.025Z,101333.00
2023-02-22T08:27:34.287Z,101328.44
2023-02-22T08:32:37.068Z,101331.91
2023-02-22T08:37:52.866Z,101326.75
2023-02-22T08:42:55.506Z,101318.06
2023-02-22T08:47:59.026Z,101331.19
2023-02-22T08:53:04.556Z,101319.56
2023-02-22T08:58:10.850Z,101321.53
2023-02-22T09:03:15.218Z,101330.00
2023-02-22T09:08:18.359Z,101321.53
2023-02-22T09:13:21.066Z,101322.09
2023-02-22T09:18:25.527Z,101326.63
2023-02-22T09:23:28.365Z,101325.81
2023-02-22T09:28:32.457Z,101317.16
2023-02-22T09:33:35.130Z,101308.47
2023-02-22T09:38:37.872Z,101305.09
2023-02-22T09:44:15.813Z,101308.31
2023-02-22T09:49:59.958Z,101306.84
2023-02-22T09:55:26.720Z,101306.78
2023-02-22T10:00:34.341Z,101300.84
2023-02-22T10:05:42.132Z,101287.41
2023-02-22T10:10:52.895Z,101275.84
2023-02-22T10:16:01.614Z,101278.78
2023-02-22T10:21:11.175Z,101283.72
2023-02-22T10:26:32.321Z,101281.28
2023-02-22T10:31:41.142Z,101272.25
2023-02-22T10:36:48.969Z,101266.72
2023-02-22T10:41:54.692Z,101278.78
2023-02-22T10:47:00.003Z,101283.31
2023-02-22T10:52:03.986Z,101278.31
2023-02-22T10:57:06.896Z,101285.19
2023-02-22T11:02:15.752Z,101282.53
2023-02-22T11:07:38.667Z,101273.25
2023-02-22T11:12:45.209Z,101274.91
2023-02-22T11:17:49.706Z,101275.84
2023-02-22T11:22:58.720Z,101266.03
2023-02-22T11:28:15.834Z,101264.38
2023-02-22T11:33:24.153Z,101267.88
2023-02-22T11:38:29.988Z,101260.47
2023-02-22T11:43:32.917Z,101265.91
2023-02-22T11:48:39.550Z,101259.19
2023-02-22T11:53:45.459Z,101253.59
2023-02-22T11:58:54.517Z,101246.84
2023-02-22T12:04:16.233Z,101250.31
2023-02-22T12:09:34.352Z,101246.28
2023-02-22T12:15:03.129Z,101258.78
2023-02-22T12:20:28.053Z,101261.94
2023-02-22T12:25:39.186Z,101262.06
2023-02-22T12:30:45.131Z,101228.94
2023-02-22T12:35:58.987Z,101249.50
2023-02-22T12:41:14.333Z,101252.50
2023-02-22T12:46:31.367Z,101248.28
2023-02-22T12:51:52.220Z,101242.13
2023-02-22T12:57:04.719Z,101251.53
2023-02-22T13:02:13.630Z,101248.47
2023-02-22T13:07:46.483Z,101235.28
2023-02-22T13:12:58.116Z,101231.44
2023-02-22T13:18:26.063Z,101208.81
2023-02-22T13:23:41.343Z,101222.59
2023-02-22T13:28:58.599Z,101213.28
2023-02-22T13:34:13.518Z,101213.06
2023-02-22T13:39:29.975Z,101197.59
2023-02-22T13:44:38.468Z,101195.09
2023-02-22T13:50:00.309Z,101185.13
2023-02-22T13:55:11.382Z,101180.50
2023-02-22T14:00:15.442Z,101163.91
2023-02-22T14:05:51.695Z,101155.91
2023-02-22T14:10:56.331Z,101154.47
2023-02-22T14:16:05.159Z,101141.28
2023-02-22T14:21:13.088Z,101146.63
2023-02-22T14:26:35.443Z,101140.09
2023-02-22T14:32:02.544Z,101137.06
2023-02-22T14:37:27.729Z,101135.34
2023-02-22T14:42:35.638Z,101133.34
2023-02-22T14:48:01.456Z,101131.88
2023-02-22T14:53:24.390Z,101121.31
2023-02-22T14:58:32.519Z,101111.63
2023-02-22T15:03:38.330Z,101109.75
2023-02-22T15:08:42.613Z,101110.19
2023-02-22T15:13:54.452Z,101112.00
2023-02-22T15:19:01.182Z,101106.59
2023-02-22T15:24:06.935Z,101097.34
2023-02-22T15:29:16.502Z,101106.16
2023-02-22T15:34:24.844Z,101089.94
2023-02-22T15:39:30.271Z,101101.06
2023-02-22T15:44:41.230Z,101092.97
2023-02-22T15:49:44.493Z,101088.25
2023-02-22T15:54:50.889Z,101085.75
2023-02-22T15:59:56.683Z,101061.84
2023-02-22T16:05:08.983Z,101033.34
2023-02-22T16:10:31.085Z,101062.66
2023-02-22T16:15:34.217Z,101052.06
2023-02-22T16:20:37.290Z,101053.94
2023-02-22T16:25:40.200Z,101043.34
2023-02-22T16:30:43.555Z,101037.66
2023-02-22T16:35:52.489Z,101019.44
2023-02-22T16:40:56.699Z,101027.50
2023-02-22T16:46:02.007Z,100995.97
2023-02-22T16:51:19.067Z,101011.66
2023-02-22T16:56:30.840Z,101000.09
2023-02-22T17:01:35.259Z,100994.81
2023-02-22T17:06:38.232Z,101001.16
2023-02-22T17:11:41.036Z,101000.13
2023-02-22T17:16:43.850Z,101003.66
2023-02-22T17:21:46.626Z,100980.34
2023-02-22T17:26:50.311Z,100991.31
2023-02-22T17:31:53.244Z,100977.28
2023-02-22T17:36:55.945Z,100986.06
2023-02-22T17:41:59.285Z,100976.94
2023-02-22T17:47:02.040Z,100969.34
2023-02-22T17:52:06.643Z,100958.47
2023-02-22T17:57:09.313Z,100952.34
2023-02-22T18:02:11.971Z,100953.22
2023-02-22T18:07:16.769Z,100944.44
2023-02-22T18:12:19.351Z,100950.16
2023-02-22T18:17:23.139Z,100940.91
2023-02-22T18:22:25.964Z,100939.91
2023-02-22T18:27:30.486Z,100932.13
2023-02-22T18:32:33.847Z,100927.00
2023-02-22T18:37:36.630Z,100930.69
2023-02-22T18:42:40.166Z,100923.03
2023-02-22T18:47:44.066Z,100904.91
2023-02-22T18:52:47.253Z,100918.69
2023-02-22T18:57:53.238Z,100893.56
2023-02-22T19:02:58.077Z,100888.25
2023-02-22T19:08:01.285Z,100904.53
2023-02-22T19:13:04.216Z,100879.03
2023-02-22T19:18:07.461Z,100872.28
2023-02-22T19:23:11.104Z,100873.34
2023-02-22T19:28:16.401Z,100881.00
2023-02-22T19:33:19.068Z,100861.50
2023-02-22T19:38:21.852Z,100839.13
2023-02-22T19:43:24.561Z,100846.56
2023-02-22T19:48:27.243Z,100829.59
2023-02-22T19:53:30.638Z,100835.31
2023-02-22T19:58:37.048Z,100828.09
2023-02-22T20:03:40.091Z,100810.97
2023-02-22T20:08:42.859Z,100812.28
2023-02-22T20:13:46.039Z,100797.94
2023-02-22T20:18:49.319Z,100785.06
2023-02-22T20:23:57.255Z,100784.75
2023-02-22T20:29:00.744Z,100783.88
2023-02-22T20:34:06.483Z,100766.50
2023-02-22T20:39:13.680Z,100784.94
2023-02-22T20:44:18.329Z,100770.28
2023-02-22T20:49:21.728Z,100790.97
2023-02-22T20:54:24.420Z,100774.88
2023-02-22T20:59:29.377Z,100733.03
2023-02-22T21:04:33.516Z,100762.88
2023-02-22T21:09:37.532Z,100739.88
2023-02-22T21:14:41.922Z,100730.81
2023-02-22T21:19:44.812Z,100732.84
2023-02-22T21:24:49.369Z,100709.28
2023-02-22T21:29:52.882Z,100713.53
2023-02-22T21:34:55.601Z,100697.59
2023-02-22T21:39:59.419Z,100717.03
2023-02-22T21:45:02.093Z,100703.88
2023-02-22T21:50:08.144Z,100702.41
2023-02-22T21:55:11.168Z,100700.53
2023-02-22T22:00:19.285Z,100679.28
2023-02-22T22:05:33.970Z,100672.72
2023-02-22T22:10:36.825Z,100672.72
2023-02-22T22:15:40.296Z,100669.38
2023-02-22T22:20:45.086Z,100646.53
2023-02-22T22:25:51.425Z,100628.53
2023-02-22T22:30:54.325Z,100619.91
2023-02-22T22:35:59.948Z,100603.06
2023-02-22T22:41:05.983Z,100604.38
2023-02-22T22:46:09.362Z,100606.72
2023-02-22T22:51:14.983Z,100575.28
2023-02-22T22:56:21.571Z,100582.75
2023-02-22T23:01:28.206Z,100571.50
2023-02-22T23:06:33.412Z,100570.47
2023-02-22T23:11:36.545Z,100570.47
2023-02-22T23:16:40.337Z,100555.00
2023-02-22T23:21:46.582Z,100550.31
2023-02-22T23:26:49.394Z,100548.09
2023-02-22T23:31:54.832Z,100531.44
2023-02-22T23:36:58.204Z,100522.19
2023-02-22T23:42:01.190Z,100505.22
2023-02-22T23:47:04.483Z,100500.56
2023-02-22T23:52:08.888Z,100494.81
2023-02-22T23:57:11.721Z,100503.75
